Nampula Airport

Airport
ICAO code: 
FQNP
IATA Code: 
APL
Summary
ICAO Region: 
AFI
Territory: 
Location: 
Nampula,
Serving: 
Nampula
Elevation: 
1444 ft
Coordinates: 
Aerial View: 
15° 6' 16.34" S, 39° 16' 58.522" E
Metar
Observation
FQNP 300300Z 02003KT 9999 FEW020 22/20 Q1014
Station
Nampula
Date/Time
2021-11-30 03:00:00
Wind direction
20°
Wind speed
03 kts
Lowest cloud amount
few clouds
Temperature
22°C
Dew point
20°C
Humidity
88%
QNH
1014 hPa
Weather condition
n/a

Runways

Designator Length Width Surface Rops
13/31 1565 45 GVL No/No
5/23 2000 45 ASP No/No
Airport map: 
Aerial View: 

SKYbrary Partners:

Safety knowledge contributed by: